createdAt,value
2019-04-30T00:02:15.942Z,9.38
2019-04-30T00:04:51.963Z,9.88
2019-04-30T00:07:20.490Z,9.18
2019-04-30T00:09:49.333Z,9.25
2019-04-30T00:12:19.662Z,9.68
2019-04-30T00:14:48.143Z,9.18
2019-04-30T00:17:19.655Z,8.68
2019-04-30T00:19:50.560Z,8.38
2019-04-30T00:22:16.966Z,8.43
2019-04-30T00:24:49.744Z,7.60
2019-04-30T00:27:21.117Z,8.45
2019-04-30T00:29:46.999Z,8.75
2019-04-30T00:32:15.987Z,9.15
2019-04-30T00:34:45.602Z,9.48
2019-04-30T00:37:18.536Z,9.23
2019-04-30T00:39:50.714Z,9.50
2019-04-30T00:42:17.239Z,8.93
2019-04-30T00:44:45.681Z,9.13
2019-04-30T00:47:15.451Z,9.83
2019-04-30T00:49:44.874Z,11.20
2019-04-30T00:52:15.388Z,11.15
2019-04-30T00:54:45.213Z,12.30
2019-04-30T00:57:15.136Z,10.48
2019-04-30T00:59:47.791Z,11.28
2019-04-30T01:02:32.965Z,12.15
2019-04-30T01:05:05.333Z,11.18
2019-04-30T01:07:33.231Z,12.60
2019-04-30T01:10:01.749Z,12.18
2019-04-30T01:12:34.639Z,12.82
2019-04-30T01:15:01.685Z,12.15
2019-04-30T01:17:30.594Z,11.63
2019-04-30T01:19:59.684Z,13.18
2019-04-30T01:22:32.621Z,12.70
2019-04-30T01:25:01.284Z,12.07
2019-04-30T01:27:29.620Z,13.18
2019-04-30T01:29:58.576Z,12.47
2019-04-30T01:32:28.475Z,12.47
2019-04-30T01:34:58.887Z,14.10
2019-04-30T01:37:29.588Z,13.70
2019-04-30T01:39:58.915Z,12.28
2019-04-30T01:42:28.418Z,13.38
2019-04-30T01:44:58.847Z,13.05
2019-04-30T01:47:28.092Z,13.03
2019-04-30T01:50:03.055Z,13.50
2019-04-30T01:52:35.124Z,12.33
2019-04-30T01:54:59.445Z,13.22
2019-04-30T01:57:39.047Z,13.55
2019-04-30T02:00:14.958Z,13.32
2019-04-30T02:02:47.103Z,14.40
2019-04-30T02:05:15.543Z,14.13
2019-04-30T02:07:46.015Z,15.00
2019-04-30T02:10:14.391Z,14.47
2019-04-30T02:12:42.849Z,13.72
2019-04-30T02:15:11.441Z,16.10
2019-04-30T02:17:39.911Z,14.58
2019-04-30T02:20:08.962Z,15.35
2019-04-30T02:22:38.938Z,16.27
2019-04-30T02:25:09.607Z,15.25
2019-04-30T02:27:39.053Z,17.42
2019-04-30T02:30:11.284Z,17.98
2019-04-30T02:32:39.783Z,17.07
2019-04-30T02:35:10.592Z,16.80
2019-04-30T02:37:59.592Z,16.52
2019-04-30T02:40:30.160Z,16.77
2019-04-30T02:43:01.598Z,16.90
2019-04-30T02:45:29.975Z,17.98
2019-04-30T02:47:59.629Z,18.48
2019-04-30T02:50:29.473Z,18.62
2019-04-30T02:53:02.749Z,18.30
2019-04-30T02:55:36.549Z,18.02
2019-04-30T02:58:05.079Z,18.82
2019-04-30T03:00:33.599Z,17.73
2019-04-30T03:03:02.081Z,15.93
2019-04-30T03:05:31.083Z,18.42
2019-04-30T03:08:00.487Z,17.42
2019-04-30T03:10:30.382Z,17.80
2019-04-30T03:13:00.003Z,16.97
2019-04-30T03:15:29.873Z,16.10
2019-04-30T03:18:00.750Z,16.05
2019-04-30T03:20:36.206Z,16.30
2019-04-30T03:23:02.407Z,17.17
2019-04-30T03:25:31.092Z,15.90
2019-04-30T03:28:00.367Z,15.50
2019-04-30T03:30:32.112Z,17.55
2019-04-30T03:33:02.707Z,18.32
2019-04-30T03:35:32.411Z,18.95
2019-04-30T03:37:59.660Z,17.23
2019-04-30T03:40:30.218Z,19.20
2019-04-30T03:43:02.676Z,18.07
2019-04-30T03:45:30.160Z,19.15
2019-04-30T03:48:00.317Z,19.50
2019-04-30T03:50:32.877Z,18.45
2019-04-30T03:53:00.453Z,19.10
2019-04-30T03:55:29.898Z,19.12
2019-04-30T03:58:00.151Z,20.35
2019-04-30T04:00:36.213Z,18.77
2019-04-30T04:03:04.674Z,19.12
2019-04-30T04:05:40.792Z,21.33
2019-04-30T04:08:19.330Z,19.30
2019-04-30T04:10:50.297Z,19.15
2019-04-30T04:13:19.778Z,20.40
2019-04-30T04:15:49.892Z,17.07
2019-04-30T04:18:20.216Z,17.70
2019-04-30T04:20:51.995Z,17.35
2019-04-30T04:23:19.348Z,16.82
2019-04-30T04:25:49.935Z,17.70
2019-04-30T04:28:20.285Z,17.00
2019-04-30T04:30:50.669Z,17.23
2019-04-30T04:33:19.910Z,17.80
2019-04-30T04:35:49.860Z,16.12
2019-04-30T04:38:20.472Z,17.73
2019-04-30T04:40:50.156Z,19.10
2019-04-30T04:43:20.189Z,18.45
2019-04-30T04:45:49.756Z,19.23
2019-04-30T04:48:19.931Z,18.30
2019-04-30T04:50:50.128Z,18.95
2019-04-30T04:53:19.609Z,18.25
2019-04-30T04:55:49.987Z,17.70
2019-04-30T04:58:21.705Z,17.48
2019-04-30T05:00:49.458Z,17.25
2019-04-30T05:03:31.619Z,16.48
2019-04-30T05:06:02.495Z,18.03
2019-04-30T05:08:30.315Z,18.55
2019-04-30T05:10:59.449Z,17.70
2019-04-30T05:13:29.048Z,16.87
2019-04-30T05:15:59.378Z,17.05
2019-04-30T05:18:29.152Z,16.57
2019-04-30T05:20:59.012Z,16.70
2019-04-30T05:23:29.869Z,16.02
2019-04-30T05:25:58.920Z,17.10
2019-04-30T05:28:29.957Z,16.02
2019-04-30T05:30:59.372Z,15.78
2019-04-30T05:33:28.566Z,15.58
2019-04-30T05:35:59.272Z,16.02
2019-04-30T05:38:28.715Z,17.90
2019-04-30T05:40:59.445Z,15.35
2019-04-30T05:43:28.955Z,15.20
2019-04-30T05:45:58.787Z,14.47
2019-04-30T05:48:28.559Z,14.07
2019-04-30T05:50:58.962Z,14.87
2019-04-30T05:53:28.664Z,15.13
2019-04-30T05:55:59.429Z,15.35
2019-04-30T05:58:29.885Z,16.25
2019-04-30T06:00:59.686Z,15.30
2019-04-30T06:03:33.053Z,15.90
2019-04-30T06:05:59.180Z,16.05
2019-04-30T06:08:29.333Z,17.70
2019-04-30T06:11:11.544Z,17.62
2019-04-30T06:13:49.149Z,16.27
2019-04-30T06:16:19.184Z,18.15
2019-04-30T06:18:48.526Z,16.73
2019-04-30T06:21:21.321Z,17.98
2019-04-30T06:23:49.186Z,17.67
2019-04-30T06:26:20.480Z,16.17
2019-04-30T06:28:49.609Z,16.82
2019-04-30T06:31:31.665Z,17.35
2019-04-30T06:33:49.970Z,15.68
2019-04-30T06:36:19.199Z,16.25
2019-04-30T06:38:48.956Z,16.30
2019-04-30T06:41:19.698Z,16.73
2019-04-30T06:43:48.914Z,16.82
2019-04-30T06:46:18.694Z,15.78
2019-04-30T06:48:50.812Z,15.80
2019-04-30T06:51:18.888Z,15.68
2019-04-30T06:53:49.548Z,15.58
2019-04-30T06:56:18.955Z,15.80
2019-04-30T06:58:49.661Z,12.82
2019-04-30T07:01:19.062Z,13.35
2019-04-30T07:03:48.697Z,14.18
2019-04-30T07:06:27.502Z,13.75
2019-04-30T07:09:01.267Z,13.93
2019-04-30T07:11:39.201Z,12.58
2019-04-30T07:14:09.633Z,12.25
2019-04-30T07:16:39.711Z,12.40
2019-04-30T07:19:09.295Z,11.90
2019-04-30T07:21:42.789Z,11.50
2019-04-30T07:24:09.407Z,12.07
2019-04-30T07:26:38.888Z,11.97
2019-04-30T07:29:09.524Z,12.98
2019-04-30T07:31:39.299Z,10.48
2019-04-30T07:34:09.339Z,12.50
2019-04-30T07:36:48.293Z,10.90
2019-04-30T07:39:09.978Z,10.45
2019-04-30T07:41:40.270Z,10.78
2019-04-30T07:44:11.014Z,10.03
2019-04-30T07:46:41.184Z,11.30
2019-04-30T07:49:10.167Z,9.58
2019-04-30T07:51:41.966Z,9.83
2019-04-30T07:54:10.764Z,9.68
2019-04-30T07:56:41.689Z,9.40
2019-04-30T07:59:11.077Z,9.83
2019-04-30T08:02:00.499Z,10.00
2019-04-30T08:04:29.091Z,9.93
2019-04-30T08:06:59.799Z,9.63
2019-04-30T08:09:38.712Z,8.63
2019-04-30T08:11:59.014Z,8.45
2019-04-30T08:14:28.810Z,9.23
2019-04-30T08:16:58.903Z,8.65
2019-04-30T08:19:28.710Z,9.05
2019-04-30T08:21:58.588Z,9.20
2019-04-30T08:24:29.080Z,8.33
2019-04-30T08:26:59.072Z,7.72
2019-04-30T08:29:47.003Z,7.53
2019-04-30T08:32:15.467Z,7.05
2019-04-30T08:34:43.941Z,6.25
2019-04-30T08:37:20.244Z,6.85
2019-04-30T08:39:49.675Z,5.90
2019-04-30T08:42:29.056Z,7.00
2019-04-30T08:44:48.738Z,6.83
2019-04-30T08:47:20.956Z,6.72
2019-04-30T08:49:50.008Z,7.00
2019-04-30T08:52:19.766Z,6.22
2019-04-30T08:54:49.609Z,6.62
2019-04-30T08:57:19.057Z,6.22
2019-04-30T08:59:49.515Z,6.30
2019-04-30T09:02:19.708Z,6.12
2019-04-30T09:04:50.384Z,5.78
2019-04-30T09:07:19.701Z,6.03
2019-04-30T09:09:48.853Z,5.05
2019-04-30T09:12:19.421Z,6.15
2019-04-30T09:14:49.034Z,6.00
2019-04-30T09:17:19.650Z,6.20
2019-04-30T09:19:49.020Z,6.60
2019-04-30T09:22:19.571Z,5.95
2019-04-30T09:24:49.742Z,5.72
2019-04-30T09:27:19.579Z,8.33
2019-04-30T09:29:49.160Z,6.00
2019-04-30T09:32:19.251Z,6.45
2019-04-30T09:34:48.908Z,5.90
2019-04-30T09:37:18.660Z,5.72
2019-04-30T09:39:49.483Z,5.92
2019-04-30T09:42:19.520Z,5.90
2019-04-30T09:44:49.244Z,5.92
2019-04-30T09:47:19.902Z,6.33
2019-04-30T09:49:49.384Z,6.85
2019-04-30T09:52:19.220Z,7.30
2019-04-30T09:54:51.642Z,6.53
2019-04-30T09:57:21.821Z,9.15
2019-04-30T09:59:50.360Z,7.42
2019-04-30T10:02:19.304Z,6.92
2019-04-30T10:04:49.902Z,7.10
2019-04-30T10:07:19.539Z,6.35
2019-04-30T10:09:51.617Z,7.25
2019-04-30T10:12:20.177Z,7.00
2019-04-30T10:14:49.562Z,6.92
2019-04-30T10:17:28.743Z,7.78
2019-04-30T10:19:57.205Z,7.22
2019-04-30T10:22:25.715Z,8.48
2019-04-30T10:24:54.183Z,8.60
2019-04-30T10:27:22.720Z,9.10
2019-04-30T10:29:51.664Z,9.43
2019-04-30T10:32:20.170Z,9.53
2019-04-30T10:34:48.747Z,9.83
2019-04-30T10:37:18.910Z,9.53
2019-04-30T10:39:48.964Z,8.38
2019-04-30T10:42:17.702Z,10.00
2019-04-30T10:44:46.257Z,15.30
2019-04-30T10:47:15.200Z,10.03
2019-04-30T10:49:43.674Z,10.68
2019-04-30T10:52:12.264Z,11.25
2019-04-30T10:54:40.791Z,11.40
2019-04-30T10:57:09.267Z,11.68
2019-04-30T10:59:37.784Z,11.50
2019-04-30T11:02:09.142Z,10.00
2019-04-30T11:04:37.683Z,6.60
2019-04-30T11:07:06.223Z,5.72
2019-04-30T11:09:35.343Z,6.33
2019-04-30T11:12:04.120Z,7.90
2019-04-30T11:14:32.565Z,7.35
2019-04-30T11:17:01.310Z,7.15
2019-04-30T11:19:30.218Z,8.23
2019-04-30T11:21:59.023Z,9.53
2019-04-30T11:24:36.545Z,11.08
2019-04-30T11:27:00.030Z,10.40
2019-04-30T11:29:30.634Z,11.10
2019-04-30T11:32:00.037Z,10.85
2019-04-30T11:34:29.629Z,10.93
2019-04-30T11:36:58.147Z,11.70
2019-04-30T11:39:27.157Z,11.12
2019-04-30T11:41:55.657Z,11.45
2019-04-30T11:44:31.060Z,10.63
2019-04-30T11:47:00.730Z,11.70
2019-04-30T11:49:29.276Z,12.65
2019-04-30T11:51:57.798Z,11.70
2019-04-30T11:54:26.370Z,13.35
2019-04-30T11:56:54.886Z,12.07
2019-04-30T11:59:23.403Z,12.10
2019-04-30T12:01:53.512Z,10.68
2019-04-30T12:04:21.966Z,12.25
2019-04-30T12:06:51.072Z,12.45
2019-04-30T12:09:21.168Z,13.20
2019-04-30T12:11:50.717Z,12.68
2019-04-30T12:14:20.246Z,15.00
2019-04-30T12:16:50.707Z,14.63
2019-04-30T12:19:19.413Z,14.73
2019-04-30T12:21:47.852Z,15.95
2019-04-30T12:24:16.313Z,15.32
2019-04-30T12:26:44.906Z,14.13
2019-04-30T12:29:13.365Z,13.20
2019-04-30T12:31:41.824Z,13.83
2019-04-30T12:34:10.289Z,14.53
2019-04-30T12:36:38.877Z,12.45
2019-04-30T12:39:07.648Z,13.00
2019-04-30T12:41:36.147Z,14.40
2019-04-30T12:44:04.740Z,14.80
2019-04-30T12:46:33.205Z,14.45
2019-04-30T12:49:11.808Z,16.00
2019-04-30T12:51:46.118Z,16.77
2019-04-30T12:54:34.689Z,16.80
2019-04-30T12:57:10.909Z,16.23
2019-04-30T12:59:38.044Z,16.77
2019-04-30T13:02:06.698Z,16.70
2019-04-30T13:04:35.156Z,18.30
2019-04-30T13:07:04.238Z,17.37
2019-04-30T13:09:33.779Z,17.07
2019-04-30T13:12:03.201Z,18.05
2019-04-30T13:14:32.954Z,17.95
2019-04-30T13:17:02.432Z,18.05
2019-04-30T13:19:30.892Z,17.90
2019-04-30T13:22:00.986Z,17.80
2019-04-30T13:24:31.359Z,17.73
2019-04-30T13:26:59.690Z,17.00
2019-04-30T13:29:29.772Z,17.73
2019-04-30T13:31:58.589Z,16.15
2019-04-30T13:34:45.156Z,14.47
2019-04-30T13:37:15.576Z,15.05
2019-04-30T13:39:54.862Z,15.25
2019-04-30T13:42:30.792Z,14.07
2019-04-30T13:44:59.259Z,14.83
2019-04-30T13:47:29.253Z,15.08
2019-04-30T13:49:59.351Z,16.05
2019-04-30T13:52:28.891Z,15.45
2019-04-30T13:54:58.206Z,14.50
2019-04-30T13:57:26.723Z,15.80
2019-04-30T13:59:55.177Z,15.72
2019-04-30T14:02:30.660Z,15.13
2019-04-30T14:05:06.767Z,15.55
2019-04-30T14:07:45.930Z,14.73
2019-04-30T14:10:14.773Z,14.43
2019-04-30T14:12:47.367Z,14.63
2019-04-30T14:15:20.014Z,14.18
2019-04-30T14:17:49.359Z,12.95
2019-04-30T14:20:18.119Z,13.35
2019-04-30T14:22:46.645Z,14.00
2019-04-30T14:25:15.835Z,13.62
2019-04-30T14:27:51.760Z,14.30
2019-04-30T14:30:15.293Z,14.93
2019-04-30T14:32:43.786Z,14.75
2019-04-30T14:35:12.489Z,14.78
2019-04-30T14:37:40.941Z,13.55
2019-04-30T14:40:12.711Z,14.07
2019-04-30T14:42:47.763Z,13.18
2019-04-30T14:45:24.417Z,14.47
2019-04-30T14:48:00.522Z,14.47
2019-04-30T14:50:32.160Z,13.98
2019-04-30T14:53:02.299Z,13.45
2019-04-30T14:55:39.331Z,14.30
2019-04-30T14:58:09.758Z,14.18
2019-04-30T15:00:39.922Z,13.68
2019-04-30T15:03:13.030Z,15.05
2019-04-30T15:05:48.556Z,14.63
2019-04-30T15:08:11.684Z,14.87
2019-04-30T15:10:40.340Z,14.38
2019-04-30T15:13:09.730Z,13.88
2019-04-30T15:15:39.211Z,14.15
2019-04-30T15:18:09.423Z,15.20
2019-04-30T15:20:39.835Z,14.87
2019-04-30T15:23:28.047Z,14.13
2019-04-30T15:25:58.560Z,14.60
2019-04-30T15:28:32.530Z,13.62
2019-04-30T15:30:58.710Z,13.80
2019-04-30T15:33:34.613Z,13.93
2019-04-30T15:36:06.592Z,14.18
2019-04-30T15:38:52.908Z,13.98
2019-04-30T15:41:21.770Z,14.13
2019-04-30T15:43:50.234Z,13.32
2019-04-30T15:46:18.821Z,14.80
2019-04-30T15:48:47.590Z,15.32
2019-04-30T15:51:16.054Z,13.72
2019-04-30T15:53:44.503Z,13.22
2019-04-30T15:56:12.971Z,13.62
2019-04-30T15:58:59.221Z,12.80
2019-04-30T16:01:29.056Z,12.55
2019-04-30T16:03:58.210Z,13.25
2019-04-30T16:06:28.453Z,12.43
2019-04-30T16:08:58.554Z,13.45
2019-04-30T16:11:29.485Z,11.43
2019-04-30T16:14:16.225Z,12.28
2019-04-30T16:16:46.392Z,13.53
2019-04-30T16:19:14.850Z,12.05
2019-04-30T16:21:43.316Z,13.40
2019-04-30T16:24:11.784Z,13.20
2019-04-30T16:26:49.309Z,13.93
2019-04-30T16:29:10.464Z,12.75
2019-04-30T16:31:39.207Z,13.35
2019-04-30T16:34:07.757Z,12.65
2019-04-30T16:36:36.240Z,13.48
2019-04-30T16:39:08.935Z,12.47
2019-04-30T16:41:40.550Z,14.35
2019-04-30T16:44:09.208Z,13.13
2019-04-30T16:46:39.519Z,12.82
2019-04-30T16:49:09.996Z,14.07
2019-04-30T16:51:38.664Z,12.30
2019-04-30T16:54:08.674Z,12.68
2019-04-30T16:56:38.648Z,12.55
2019-04-30T16:59:18.095Z,12.00
2019-04-30T17:01:57.480Z,12.20
2019-04-30T17:04:29.076Z,12.20
2019-04-30T17:07:02.108Z,11.75
2019-04-30T17:09:35.260Z,12.98
2019-04-30T17:12:05.507Z,12.13
2019-04-30T17:14:35.639Z,11.60
2019-04-30T17:17:04.336Z,12.03
2019-04-30T17:19:39.353Z,11.53
2019-04-30T17:22:08.113Z,12.07
2019-04-30T17:24:36.601Z,11.73
2019-04-30T17:27:16.359Z,11.78
2019-04-30T17:29:36.828Z,11.20
2019-04-30T17:32:05.385Z,12.00
2019-04-30T17:34:33.881Z,11.35
2019-04-30T17:37:02.407Z,11.78
2019-04-30T17:39:30.901Z,11.70
2019-04-30T17:41:59.398Z,12.18
2019-04-30T17:44:28.906Z,11.93
2019-04-30T17:46:57.652Z,11.80
2019-04-30T17:49:26.516Z,11.80
2019-04-30T17:51:54.980Z,11.70
2019-04-30T17:54:23.460Z,11.50
2019-04-30T17:56:52.008Z,11.65
2019-04-30T17:59:20.529Z,12.18
2019-04-30T18:01:53.457Z,13.65
2019-04-30T18:04:22.571Z,12.50
2019-04-30T18:06:51.131Z,12.18
2019-04-30T18:09:20.103Z,11.60
2019-04-30T18:11:49.610Z,14.50
2019-04-30T18:14:18.811Z,12.93
2019-04-30T18:16:48.685Z,13.80
2019-04-30T18:19:28.683Z,13.53
2019-04-30T18:21:59.672Z,12.82
2019-04-30T18:24:39.441Z,12.40
2019-04-30T18:27:09.781Z,13.05
2019-04-30T18:29:38.277Z,13.13
2019-04-30T18:32:09.323Z,12.68
2019-04-30T18:34:39.124Z,13.50
2019-04-30T18:37:09.010Z,13.08
2019-04-30T18:39:37.783Z,12.75
2019-04-30T18:42:06.263Z,12.80
2019-04-30T18:44:34.765Z,14.07
2019-04-30T18:47:03.243Z,13.35
2019-04-30T18:49:31.810Z,13.53
2019-04-30T18:52:00.301Z,14.35
2019-04-30T18:54:29.047Z,13.98
2019-04-30T18:56:58.948Z,14.80
2019-04-30T18:59:27.464Z,14.87
2019-04-30T19:01:56.065Z,14.53
2019-04-30T19:04:24.553Z,16.17
2019-04-30T19:06:57.590Z,13.50
2019-04-30T19:09:29.495Z,15.45
2019-04-30T19:12:02.228Z,16.90
2019-04-30T19:14:32.401Z,16.27
2019-04-30T19:17:02.533Z,14.50
2019-04-30T19:19:41.721Z,14.58
2019-04-30T19:22:10.189Z,15.35
2019-04-30T19:24:38.679Z,15.70
2019-04-30T19:27:08.668Z,13.93
2019-04-30T19:29:37.441Z,13.50
2019-04-30T19:32:06.041Z,13.55
2019-04-30T19:34:34.519Z,14.68
2019-04-30T19:37:03.033Z,13.43
2019-04-30T19:39:32.535Z,14.58
2019-04-30T19:42:01.351Z,13.70
2019-04-30T19:44:29.836Z,13.60
2019-04-30T19:46:58.652Z,14.60
2019-04-30T19:49:27.345Z,14.63
2019-04-30T19:52:06.137Z,14.47
2019-04-30T19:54:26.142Z,14.15
2019-04-30T19:56:54.670Z,13.98
2019-04-30T19:59:23.161Z,14.33
2019-04-30T20:01:53.450Z,13.60
2019-04-30T20:04:32.799Z,14.03
2019-04-30T20:06:52.123Z,13.98
2019-04-30T20:09:20.630Z,13.90
2019-04-30T20:11:49.375Z,13.93
2019-04-30T20:14:18.682Z,13.58
2019-04-30T20:16:48.718Z,14.00
2019-04-30T20:19:17.419Z,14.38
2019-04-30T20:21:53.016Z,13.22
2019-04-30T20:24:16.199Z,13.70
2019-04-30T20:26:45.126Z,14.65
2019-04-30T20:29:18.539Z,13.75
2019-04-30T20:31:48.749Z,15.38
2019-04-30T20:34:19.042Z,14.28
2019-04-30T20:36:47.392Z,15.10
2019-04-30T20:39:20.702Z,14.70
2019-04-30T20:41:51.519Z,14.13
2019-04-30T20:44:20.051Z,15.28
2019-04-30T20:46:49.125Z,15.58
2019-04-30T20:49:19.239Z,14.63
2019-04-30T20:51:55.057Z,14.63
2019-04-30T20:54:19.009Z,14.98
2019-04-30T20:56:48.330Z,13.72
2019-04-30T20:59:19.015Z,14.33
2019-04-30T21:01:48.997Z,15.00
2019-04-30T21:04:20.366Z,14.58
2019-04-30T21:06:49.647Z,13.98
2019-04-30T21:09:18.038Z,14.00
2019-04-30T21:11:46.509Z,15.38
2019-04-30T21:14:14.976Z,14.15
2019-04-30T21:16:43.540Z,15.18
2019-04-30T21:19:12.130Z,14.80
2019-04-30T21:21:40.750Z,14.03
2019-04-30T21:24:09.624Z,15.05
2019-04-30T21:26:38.372Z,13.40
2019-04-30T21:29:13.211Z,15.32
2019-04-30T21:31:44.794Z,13.85
2019-04-30T21:34:15.020Z,13.93
2019-04-30T21:36:43.527Z,14.30
2019-04-30T21:39:12.066Z,14.00
2019-04-30T21:41:40.599Z,15.18
2019-04-30T21:44:09.168Z,14.05
2019-04-30T21:46:39.463Z,14.40
2019-04-30T21:49:08.909Z,15.40
2019-04-30T21:51:40.014Z,15.35
2019-04-30T21:54:07.878Z,15.85
2019-04-30T21:56:36.403Z,14.85
2019-04-30T21:59:04.876Z,15.00
2019-04-30T22:01:33.790Z,15.68
2019-04-30T22:04:02.323Z,15.78
2019-04-30T22:06:30.804Z,15.43
2019-04-30T22:08:59.816Z,15.45
2019-04-30T22:11:29.619Z,16.27
2019-04-30T22:13:58.368Z,15.80
2019-04-30T22:16:26.878Z,16.57
2019-04-30T22:18:55.405Z,16.62
2019-04-30T22:21:23.893Z,16.23
2019-04-30T22:23:52.388Z,16.50
2019-04-30T22:26:20.928Z,17.10
2019-04-30T22:28:49.527Z,16.23
2019-04-30T22:31:19.738Z,16.75
2019-04-30T22:33:49.081Z,17.10
2019-04-30T22:36:28.994Z,17.62
2019-04-30T22:39:15.573Z,17.17
2019-04-30T22:41:44.053Z,17.30
2019-04-30T22:44:12.594Z,16.67
2019-04-30T22:46:41.064Z,17.80
2019-04-30T22:49:09.542Z,17.40
2019-04-30T22:51:38.012Z,16.48
2019-04-30T22:54:06.475Z,16.52
2019-04-30T22:56:34.951Z,17.42
2019-04-30T22:59:03.441Z,17.37
2019-04-30T23:01:33.588Z,17.75
2019-04-30T23:04:03.697Z,17.50
2019-04-30T23:06:32.161Z,16.95
2019-04-30T23:09:00.670Z,17.23
2019-04-30T23:11:30.744Z,16.75
2019-04-30T23:13:59.204Z,16.87
2019-04-30T23:16:27.664Z,17.60
2019-04-30T23:18:56.142Z,17.25
2019-04-30T23:21:24.605Z,17.32
2019-04-30T23:23:53.068Z,16.32
2019-04-30T23:26:21.548Z,16.45
2019-04-30T23:28:51.636Z,17.32
2019-04-30T23:31:20.109Z,16.27
2019-04-30T23:33:48.593Z,15.65
2019-04-30T23:36:17.116Z,16.23
2019-04-30T23:38:48.051Z,16.67
2019-04-30T23:41:16.516Z,16.15
2019-04-30T23:43:44.973Z,16.10
2019-04-30T23:46:13.450Z,17.37
2019-04-30T23:48:41.918Z,15.55
2019-04-30T23:51:10.419Z,16.52
2019-04-30T23:53:38.888Z,16.02
2019-04-30T23:56:07.450Z,16.30
2019-04-30T23:58:35.952Z,15.98
